Time;durP1;ratioP1;P1;durP2;ratioP2;P2;SDS_P1;SDS_P2;PMS_P1;PMS_P2;Temp;Humidity;BMP_temperature;BMP_pressure;BME280_temperature;BME280_humidity;BME280_pressure;Samples;Min_cycle;Max_cycle;Signal;HPM_P1;HPM_P2
2022/07/21 00:00:33;;;;;;;11.57;8.67;;;;;;;21.14;100.00;101652.59;5233608;28;20029;-70
2022/07/21 00:03:04;;;;;;;9.10;8.17;;;;;;;21.12;100.00;101648.44;5234266;28;20049;-68
2022/07/21 00:05:36;;;;;;;8.67;7.87;;;;;;;21.06;100.00;101641.16;5234093;28;20040;-72
2022/07/21 00:08:07;;;;;;;9.10;8.17;;;;;;;21.08;100.00;101652.47;5232469;28;20030;-70
2022/07/21 00:10:39;;;;;;;8.50;7.70;;;;;;;21.06;100.00;101650.00;5233053;28;20037;-70
2022/07/21 00:13:10;;;;;;;9.53;7.87;;;;;;;21.04;100.00;101657.34;5233053;28;20034;-71
2022/07/21 00:15:42;;;;;;;8.43;7.63;;;;;;;20.99;100.00;101662.38;5234136;28;20509;-69
2022/07/21 00:18:13;;;;;;;8.33;7.53;;;;;;;20.97;100.00;101648.41;5232418;28;20021;-68
2022/07/21 00:20:45;;;;;;;9.40;8.30;;;;;;;20.84;100.00;101649.03;5232428;28;20061;-69
2022/07/21 00:23:16;;;;;;;8.57;7.77;;;;;;;20.83;100.00;101652.66;5231378;28;20036;-69
2022/07/21 00:25:48;;;;;;;9.67;8.27;;;;;;;20.78;100.00;101660.38;5234631;28;20029;-69
2022/07/21 00:28:20;;;;;;;8.63;7.83;;;;;;;20.75;100.00;101658.06;5234613;28;20029;-69
2022/07/21 00:30:51;;;;;;;10.37;8.47;;;;;;;20.79;100.00;101658.53;5233964;28;20068;-70
2022/07/21 00:33:22;;;;;;;9.27;8.37;;;;;;;20.72;100.00;101654.91;5234716;28;20503;-70
2022/07/21 00:35:54;;;;;;;8.73;7.73;;;;;;;20.69;100.00;101660.63;5235369;28;20032;-70
2022/07/21 00:38:25;;;;;;;8.90;8.00;;;;;;;20.65;100.00;101655.66;5235110;28;20100;-70
2022/07/21 00:40:56;;;;;;;9.27;8.37;;;;;;;20.64;100.00;101661.94;5234229;28;20033;-71
2022/07/21 00:43:28;;;;;;;10.30;8.70;;;;;;;20.64;100.00;101663.78;5232692;28;20087;-71
2022/07/21 00:45:59;;;;;;;9.73;8.73;;;;;;;20.61;100.00;101665.00;5233671;28;20080;-71
2022/07/21 00:48:30;;;;;;;9.67;8.73;;;;;;;20.61;100.00;101666.81;5233380;28;20507;-71
2022/07/21 00:51:02;;;;;;;9.57;8.50;;;;;;;20.61;100.00;101664.16;5231073;28;20033;-71
2022/07/21 00:53:33;;;;;;;9.27;8.27;;;;;;;20.61;100.00;101667.66;5232081;28;20022;-71
2022/07/21 00:56:05;;;;;;;9.73;8.23;;;;;;;20.53;100.00;101656.19;5232833;28;20347;-71
2022/07/21 00:58:37;;;;;;;8.70;7.97;;;;;;;20.55;100.00;101659.53;5229288;28;20219;-70
2022/07/21 01:01:08;;;;;;;11.00;9.17;;;;;;;20.57;100.00;101665.50;5236316;28;20075;-70
2022/07/21 01:03:39;;;;;;;9.13;8.23;;;;;;;20.51;100.00;101659.06;5236773;28;20029;-70
2022/07/21 01:06:11;;;;;;;9.73;8.83;;;;;;;20.44;100.00;101651.91;5237479;28;20068;-70
2022/07/21 01:08:42;;;;;;;9.83;8.93;;;;;;;20.40;100.00;101646.09;5235531;28;20514;-70
2022/07/21 01:11:13;;;;;;;9.20;8.30;;;;;;;20.45;100.00;101638.41;5233781;28;20494;-70
2022/07/21 01:13:45;;;;;;;8.77;7.87;;;;;;;20.38;100.00;101629.47;5235156;28;20537;-70
2022/07/21 01:16:16;;;;;;;9.87;8.87;;;;;;;20.38;100.00;101634.78;5236720;28;20289;-73
2022/07/21 01:18:48;;;;;;;10.37;9.37;;;;;;;20.36;100.00;101631.50;5235159;28;20025;-72
2022/07/21 01:21:28;;;;;;;10.63;9.53;;;;;;;20.48;100.00;101631.91;5236496;28;20386;-70
2022/07/21 01:24:01;;;;;;;9.57;8.55;;;;;;;20.25;100.00;101630.06;5234490;28;20497;-70
2022/07/21 01:26:51;;;;;;;11.10;10.00;;;;;;;20.44;100.00;101627.97;5236778;28;20479;-70
2022/07/21 01:29:23;;;;;;;10.15;9.23;;;;;;;20.30;100.00;101626.88;5235234;28;20033;-71
2022/07/21 01:31:54;;;;;;;11.00;9.38;;;;;;;20.22;100.00;101622.41;5234650;28;20572;-71
2022/07/21 01:34:26;;;;;;;10.10;9.20;;;;;;;20.26;100.00;101633.53;5236997;28;20030;-70
2022/07/21 01:36:57;;;;;;;10.97;9.90;;;;;;;20.21;100.00;101630.59;5234773;28;20030;-70
2022/07/21 01:42:19;;;;;;;11.20;10.07;;;;;;;20.22;100.00;101627.72;5236053;28;20081;-70
2022/07/21 01:44:50;;;;;;;11.10;9.60;;;;;;;20.30;100.00;101624.19;5236477;28;20025;-71
2022/07/21 01:47:22;;;;;;;10.07;9.07;;;;;;;20.20;100.00;101626.28;5235390;28;20406;-72
2022/07/21 01:49:54;;;;;;;14.43;9.67;;;;;;;20.18;100.00;101631.75;5235463;28;20036;-70
2022/07/21 01:52:25;;;;;;;11.37;10.20;;;;;;;20.20;100.00;101642.25;5235744;28;20040;-69
2022/07/21 01:54:56;;;;;;;9.87;8.87;;;;;;;20.16;100.00;101628.44;5234549;28;20048;-69
2022/07/21 01:57:28;;;;;;;10.30;9.33;;;;;;;20.19;100.00;101628.06;5234004;28;20037;-69
2022/07/21 02:00:00;;;;;;;9.93;9.00;;;;;;;20.23;100.00;101636.53;5235926;28;20029;-69
2022/07/21 02:02:31;;;;;;;10.57;9.43;;;;;;;20.18;100.00;101632.56;5233500;28;20037;-69
2022/07/21 02:05:03;;;;;;;10.60;9.60;;;;;;;20.17;100.00;101640.75;5233622;28;20769;-69
2022/07/21 02:07:34;;;;;;;10.90;9.90;;;;;;;20.16;100.00;101629.28;5232881;28;20037;-69
2022/07/21 02:10:05;;;;;;;11.07;9.97;;;;;;;20.14;100.00;101625.13;5235710;28;20079;-69
2022/07/21 02:12:37;;;;;;;11.57;10.03;;;;;;;20.12;100.00;101627.16;5236577;28;20115;-69
2022/07/21 02:15:09;;;;;;;10.83;9.83;;;;;;;20.14;100.00;101633.09;5235869;28;20476;-69
2022/07/21 02:17:40;;;;;;;11.53;9.93;;;;;;;20.21;100.00;101630.59;5233153;28;20072;-68
2022/07/21 02:20:11;;;;;;;10.90;9.80;;;;;;;20.18;100.00;101629.09;5235826;28;20037;-68
2022/07/21 02:22:45;;;;;;;11.47;10.37;;;;;;;20.19;100.00;101628.06;5235703;28;20462;-70
2022/07/21 02:25:16;;;;;;;10.80;9.77;;;;;;;20.16;100.00;101625.78;5235188;28;20467;-69
2022/07/21 02:27:48;;;;;;;10.90;9.83;;;;;;;20.18;100.00;101621.94;5232850;28;20029;-70
2022/07/21 02:30:19;;;;;;;12.13;10.93;;;;;;;20.15;100.00;101614.31;5234577;28;20056;-70
2022/07/21 02:32:50;;;;;;;11.77;10.57;;;;;;;20.15;100.00;101613.47;5233896;28;20049;-69
2022/07/21 02:35:22;;;;;;;11.90;10.80;;;;;;;20.17;100.00;101611.47;5235013;28;20040;-71
2022/07/21 02:37:53;;;;;;;11.77;10.57;;;;;;;20.10;100.00;101619.31;5232789;28;20036;-71
2022/07/21 02:40:25;;;;;;;12.17;10.97;;;;;;;20.13;100.00;101612.81;5235230;28;20132;-71
2022/07/21 02:42:56;;;;;;;12.40;11.03;;;;;;;20.11;100.00;101618.31;5234890;28;20044;-70
2022/07/21 02:45:28;;;;;;;12.73;11.43;;;;;;;20.23;100.00;101623.25;5233154;28;20386;-71
2022/07/21 02:48:09;;;;;;;13.23;12.03;;;;;;;20.20;100.00;101619.13;5233063;28;20025;-71
2022/07/21 02:50:42;;;;;;;12.48;11.23;;;;;;;20.11;100.00;101615.66;5234216;28;20117;-70
2022/07/21 02:53:18;;;;;;;12.70;11.35;;;;;;;20.12;100.00;101612.00;5232941;28;20032;-70
2022/07/21 02:55:52;;;;;;;14.68;12.75;;;;;;;20.09;100.00;101598.22;5234505;28;21062;-70
2022/07/21 02:58:28;;;;;;;13.57;12.23;;;;;;;20.21;100.00;101612.78;5232561;28;20164;-70
2022/07/21 03:01:03;;;;;;;13.23;11.93;;;;;;;20.22;100.00;101613.59;5232971;28;20049;-71
2022/07/21 03:03:35;;;;;;;14.15;12.73;;;;;;;20.16;100.00;101609.81;5234607;28;20032;-73
2022/07/21 03:06:07;;;;;;;;;;;;;;;20.77;100.00;101612.63;5233627;28;20474;-70
2022/07/21 03:08:38;;;;;;;13.43;12.13;;;;;;;20.20;100.00;101618.28;5235746;28;19955;-69
2022/07/21 03:11:09;;;;;;;15.10;13.60;;;;;;;20.16;100.00;101610.66;5237381;28;20021;-69
2022/07/21 03:13:41;;;;;;;14.37;12.97;;;;;;;20.18;100.00;101605.16;5235259;28;20029;-70
2022/07/21 03:16:12;;;;;;;13.37;12.00;;;;;;;20.15;100.00;101606.34;5236159;28;20329;-69
2022/07/21 03:18:43;;;;;;;14.60;13.20;;;;;;;20.13;100.00;101607.50;5233915;28;20033;-69
2022/07/21 03:21:14;;;;;;;14.03;12.63;;;;;;;20.21;100.00;101598.66;5235652;28;20032;-69
2022/07/21 03:23:46;;;;;;;13.70;12.20;;;;;;;20.25;100.00;101599.97;5235842;28;20037;-69
2022/07/21 03:26:17;;;;;;;13.13;11.80;;;;;;;20.27;100.00;101600.63;5234637;28;20223;-70
2022/07/21 03:28:48;;;;;;;13.40;12.00;;;;;;;20.26;100.00;101604.28;5235898;28;20033;-69
2022/07/21 03:31:20;;;;;;;14.37;11.63;;;;;;;20.29;100.00;101612.72;5236475;28;20068;-69
2022/07/21 03:33:51;;;;;;;13.43;11.37;;;;;;;20.26;100.00;101612.25;5234603;28;20037;-69
2022/07/21 03:36:22;;;;;;;14.00;12.43;;;;;;;20.23;100.00;101609.94;5233275;28;20300;-69
2022/07/21 03:38:54;;;;;;;12.63;11.47;;;;;;;20.26;100.00;101601.59;5233648;28;20079;-69
2022/07/21 03:41:25;;;;;;;13.13;11.83;;;;;;;20.24;100.00;101619.59;5234225;28;20033;-69
2022/07/21 03:43:56;;;;;;;12.57;11.37;;;;;;;20.20;100.00;101607.66;5233693;28;20418;-69
2022/07/21 03:46:29;;;;;;;12.83;11.50;;;;;;;20.27;100.00;101614.75;5232604;28;20068;-71
2022/07/21 03:49:00;;;;;;;12.85;11.50;;;;;;;20.27;100.00;101613.94;5233811;28;20033;-71
2022/07/21 03:51:31;;;;;;;15.70;11.70;;;;;;;20.18;100.00;101605.16;5234150;28;20033;-68
2022/07/21 03:54:03;;;;;;;13.00;11.70;;;;;;;20.12;100.00;101609.34;5231772;28;20045;-68
2022/07/21 03:56:34;;;;;;;12.97;11.23;;;;;;;20.22;100.00;101619.75;5233398;28;20051;-69
2022/07/21 03:59:06;;;;;;;14.80;11.33;;;;;;;20.14;100.00;101606.50;5232170;28;20032;-69
2022/07/21 04:01:37;;;;;;;13.57;11.50;;;;;;;20.17;100.00;101609.63;5231795;28;20140;-69
2022/07/21 04:04:08;;;;;;;12.83;11.53;;;;;;;20.21;100.00;101626.09;5232852;28;20025;-69
2022/07/21 04:06:39;;;;;;;11.83;10.63;;;;;;;20.15;100.00;101627.63;5231302;28;20032;-69
2022/07/21 04:09:11;;;;;;;13.80;11.63;;;;;;;20.15;100.00;101632.09;5233463;28;20087;-69
2022/07/21 04:11:42;;;;;;;12.20;10.83;;;;;;;20.20;100.00;101635.06;5233535;28;20033;-69
2022/07/21 04:14:13;;;;;;;11.53;10.33;;;;;;;20.18;100.00;101637.91;5233237;28;20061;-68
2022/07/21 04:16:44;;;;;;;15.53;11.30;;;;;;;20.17;100.00;101638.91;5231826;28;20021;-69
2022/07/21 04:19:18;;;;;;;11.43;10.13;;;;;;;20.13;100.00;101628.78;5232380;28;20124;-69
2022/07/21 04:21:49;;;;;;;12.52;11.15;;;;;;;20.13;100.00;101626.94;5233314;28;20028;-71
2022/07/21 04:24:20;;;;;;;11.87;10.63;;;;;;;20.12;100.00;101627.97;5234916;28;20025;-70
2022/07/21 04:26:52;;;;;;;12.50;10.97;;;;;;;20.16;100.00;101623.94;5232083;28;20416;-70
2022/07/21 04:29:23;;;;;;;12.93;11.30;;;;;;;20.15;100.00;101621.44;5232466;28;20399;-70
2022/07/21 04:31:54;;;;;;;12.93;11.00;;;;;;;20.07;100.00;101622.31;5233026;28;20057;-71
2022/07/21 04:34:27;;;;;;;14.53;11.40;;;;;;;20.07;100.00;101613.50;5239093;28;20044;-70
2022/07/21 04:36:59;;;;;;;12.13;10.27;;;;;;;20.05;100.00;101621.69;5235638;28;20033;-70
2022/07/21 04:39:30;;;;;;;12.03;10.43;;;;;;;20.06;100.00;101612.69;5237161;28;20486;-70
2022/07/21 04:42:02;;;;;;;14.67;11.30;;;;;;;20.07;100.00;101613.50;5238131;28;20030;-70
2022/07/21 04:44:33;;;;;;;11.07;9.97;;;;;;;20.08;100.00;101618.69;5238441;28;20029;-70
2022/07/21 04:47:05;;;;;;;15.33;11.30;;;;;;;20.12;100.00;101621.81;5237485;28;20030;-70
2022/07/21 04:49:36;;;;;;;13.07;11.23;;;;;;;20.04;100.00;101617.38;5236345;28;20035;-70
2022/07/21 04:52:07;;;;;;;14.07;11.77;;;;;;;20.03;100.00;101623.66;5235916;28;20204;-69
2022/07/21 04:54:39;;;;;;;14.13;11.27;;;;;;;20.01;100.00;101625.69;5237678;28;20040;-69
2022/07/21 04:57:10;;;;;;;12.50;11.10;;;;;;;20.00;100.00;101626.69;5236143;28;20035;-69
2022/07/21 04:59:41;;;;;;;12.70;11.40;;;;;;;20.01;100.00;101628.34;5237756;28;20029;-70
2022/07/21 05:02:13;;;;;;;14.87;11.40;;;;;;;19.93;100.00;101629.22;5237337;28;20206;-70
2022/07/21 05:04:44;;;;;;;12.10;10.97;;;;;;;19.99;100.00;101630.34;5237295;28;20025;-70
2022/07/21 05:07:15;;;;;;;13.20;11.87;;;;;;;19.95;100.00;101622.88;5237054;28;20033;-70
2022/07/21 05:09:46;;;;;;;12.40;10.53;;;;;;;20.06;100.00;101620.66;5236604;28;20041;-70
2022/07/21 05:12:18;;;;;;;16.60;11.57;;;;;;;20.01;100.00;101630.19;5235251;28;20471;-71
2022/07/21 05:14:49;;;;;;;12.97;10.33;;;;;;;20.04;100.00;101633.31;5233784;28;20460;-70
2022/07/21 05:17:20;;;;;;;11.13;9.90;;;;;;;20.03;100.00;101623.66;5233416;28;20048;-69
2022/07/21 05:19:51;;;;;;;13.10;10.40;;;;;;;20.06;100.00;101625.16;5235750;28;20095;-69
2022/07/21 05:22:23;;;;;;;11.47;10.13;;;;;;;20.08;100.00;101629.31;5236472;28;20474;-71
2022/07/21 05:24:54;;;;;;;14.00;10.33;;;;;;;20.05;100.00;101623.50;5236987;28;20029;-71
2022/07/21 05:27:25;;;;;;;12.57;9.87;;;;;;;20.04;100.00;101620.03;5231822;28;20056;-68
2022/07/21 05:29:57;;;;;;;12.63;9.30;;;;;;;20.12;100.00;101630.63;5234201;28;20095;-68
2022/07/21 05:32:29;;;;;;;15.57;10.40;;;;;;;20.01;100.00;101612.38;5234575;28;20050;-68
2022/07/21 05:35:00;;;;;;;11.77;10.47;;;;;;;20.02;100.00;101615.88;5236469;28;20770;-67
2022/07/21 05:37:31;;;;;;;15.03;9.90;;;;;;;20.04;100.00;101605.88;5234030;28;20127;-69
2022/07/21 05:40:03;;;;;;;10.83;9.77;;;;;;;20.06;100.00;101615.34;5235175;28;20344;-70
2022/07/21 05:42:35;;;;;;;12.73;9.77;;;;;;;20.10;100.00;101616.66;5235741;28;20552;-69
2022/07/21 05:45:08;;;;;;;12.63;9.43;;;;;;;20.06;100.00;101615.34;5235392;28;20037;-69
2022/07/21 05:47:40;;;;;;;12.15;10.00;;;;;;;20.11;100.00;101612.97;5235443;28;20243;-69
2022/07/21 05:50:13;;;;;;;13.40;10.57;;;;;;;20.07;100.00;101614.34;5236562;28;20033;-69
2022/07/21 05:52:44;;;;;;;12.38;11.07;;;;;;;20.06;100.00;101612.69;5234861;28;20470;-69
2022/07/21 05:55:15;;;;;;;14.30;10.27;;;;;;;20.12;100.00;101611.19;5236533;28;20121;-70
2022/07/21 05:57:47;;;;;;;11.60;10.37;;;;;;;20.24;100.00;101614.28;5233664;28;20043;-68
2022/07/21 06:00:18;;;;;;;13.77;11.70;;;;;;;20.27;100.00;101624.56;5236317;28;20483;-69
2022/07/21 06:02:50;;;;;;;17.27;11.83;;;;;;;20.28;100.00;101620.91;5228579;28;20032;-69
2022/07/21 06:05:21;;;;;;;16.03;13.43;;;;;;;20.24;100.00;101622.25;5230027;28;20376;-69
2022/07/21 06:07:53;;;;;;;19.40;13.03;;;;;;;20.37;100.00;101625.16;5230481;28;20294;-68
2022/07/21 06:10:24;;;;;;;17.73;13.67;;;;;;;20.40;100.00;101625.63;5236403;28;20064;-68
2022/07/21 06:12:55;;;;;;;18.90;13.40;;;;;;;20.51;100.00;101624.44;5232792;28;20027;-68
2022/07/21 06:15:27;;;;;;;20.33;15.17;;;;;;;20.60;100.00;101623.38;5234542;28;20044;-70
2022/07/21 06:17:58;;;;;;;17.97;13.73;;;;;;;20.80;100.00;101610.44;5234281;28;20112;-70
2022/07/21 06:20:29;;;;;;;18.40;14.80;;;;;;;20.90;100.00;101607.50;5233404;28;20033;-70
2022/07/21 06:23:01;;;;;;;18.87;14.80;;;;;;;21.01;100.00;101615.06;5234209;28;20043;-70
2022/07/21 06:25:32;;;;;;;19.90;15.60;;;;;;;21.24;100.00;101615.03;5232156;28;20026;-70
2022/07/21 06:28:03;;;;;;;20.70;16.73;;;;;;;21.20;100.00;101605.75;5233320;28;20450;-70
2022/07/21 06:30:35;;;;;;;21.90;15.93;;;;;;;21.45;100.00;101609.03;5234759;28;20036;-71
2022/07/21 06:33:06;;;;;;;20.73;16.23;;;;;;;21.39;100.00;101612.41;5233583;28;20062;-71
2022/07/21 06:35:38;;;;;;;23.73;16.73;;;;;;;21.37;100.00;101611.78;5234436;28;20470;-71
2022/07/21 06:38:10;;;;;;;22.30;16.55;;;;;;;21.38;100.00;101622.25;5234874;28;20087;-71
2022/07/21 06:40:41;;;;;;;21.63;16.13;;;;;;;21.33;100.00;101610.50;5234050;28;20486;-70
2022/07/21 06:43:13;;;;;;;19.63;15.83;;;;;;;21.35;100.00;101617.28;5234060;28;20037;-71
2022/07/21 06:45:44;;;;;;;23.93;17.10;;;;;;;21.32;100.00;101622.94;5235170;28;20026;-71
2022/07/21 06:48:15;;;;;;;20.73;15.33;;;;;;;21.42;100.00;101621.88;5232926;28;20487;-71
2022/07/21 06:50:47;;;;;;;22.17;16.83;;;;;;;21.43;100.00;101628.88;5233301;28;20030;-71
2022/07/21 06:53:18;;;;;;;20.97;15.67;;;;;;;21.50;100.00;101622.63;5234885;28;20474;-68
2022/07/21 06:55:52;;;;;;;19.50;15.37;;;;;;;21.49;100.00;101638.81;5233623;28;20482;-68
2022/07/21 06:58:27;;;;;;;18.30;16.27;;;;;;;21.33;100.00;101639.81;5228676;28;20026;-68
2022/07/21 07:00:58;;;;;;;19.85;15.63;;;;;;;21.41;100.00;101645.06;5232460;28;20021;-68
2022/07/21 07:03:29;;;;;;;17.83;15.30;;;;;;;21.33;100.00;101642.47;5232787;28;20083;-69
2022/07/21 07:06:01;;;;;;;19.83;16.27;;;;;;;21.30;100.00;101650.81;5234439;28;20033;-69
2022/07/21 07:08:32;;;;;;;24.30;16.00;;;;;;;21.30;100.00;101653.47;5234757;28;20123;-70
2022/07/21 07:11:04;;;;;;;17.70;14.90;;;;;;;21.18;100.00;101658.41;5233711;28;20124;-69
2022/07/21 07:13:35;;;;;;;23.03;17.00;;;;;;;21.11;100.00;101660.94;5234999;28;20040;-70
2022/07/21 07:16:07;;;;;;;21.67;16.10;;;;;;;21.13;100.00;101648.25;5231665;28;20069;-70
2022/07/21 07:18:38;;;;;;;18.90;15.43;;;;;;;21.17;100.00;101651.41;5232237;28;20076;-70
2022/07/21 07:21:09;;;;;;;17.50;14.90;;;;;;;21.16;100.00;101652.41;5233804;28;20387;-71
2022/07/21 07:23:41;;;;;;;21.43;15.33;;;;;;;21.21;100.00;101644.69;5224868;28;20084;-71
2022/07/21 07:26:12;;;;;;;22.20;16.03;;;;;;;21.16;100.00;101641.75;5225461;28;20074;-70
2022/07/21 07:28:43;;;;;;;19.03;15.33;;;;;;;21.15;100.00;101645.44;5226383;28;20100;-70
2022/07/21 07:31:15;;;;;;;20.83;15.57;;;;;;;21.09;100.00;101646.97;5232427;28;20033;-70
2022/07/21 07:33:46;;;;;;;20.17;15.10;;;;;;;21.03;100.00;101653.03;5234221;28;20076;-70
2022/07/21 07:36:17;;;;;;;19.40;15.10;;;;;;;21.05;100.00;101650.19;5233479;28;20053;-70
2022/07/21 07:38:49;;;;;;;18.10;14.83;;;;;;;20.97;100.00;101659.06;5232514;28;20223;-69
2022/07/21 07:41:21;;;;;;;16.97;14.03;;;;;;;20.86;100.00;101657.63;5233559;28;20033;-69
2022/07/21 07:43:53;;;;;;;20.05;15.27;;;;;;;20.72;100.00;101655.78;5229521;28;20022;-68
2022/07/21 07:46:24;;;;;;;16.30;14.43;;;;;;;20.65;100.00;101655.66;5233646;28;20407;-67
2022/07/21 07:48:55;;;;;;;16.33;13.20;;;;;;;20.57;100.00;101658.34;5233581;28;20087;-67
2022/07/21 07:51:26;;;;;;;15.27;12.97;;;;;;;20.53;100.00;101661.53;5233694;28;20033;-68
2022/07/21 07:54:00;;;;;;;14.77;12.37;;;;;;;20.52;100.00;101663.38;5234006;28;20029;-68
2022/07/21 07:56:32;;;;;;;12.43;10.45;;;;;;;20.32;100.00;101656.81;5232565;28;20490;-68
2022/07/21 07:59:03;;;;;;;11.33;9.87;;;;;;;20.42;100.00;101657.41;5228371;28;20029;-67
2022/07/21 08:01:34;;;;;;;11.17;10.03;;;;;;;20.35;100.00;101657.28;5227381;28;20149;-67
2022/07/21 08:04:14;;;;;;;9.93;8.60;;;;;;;20.36;100.00;101658.09;5227443;28;20058;-70
2022/07/21 08:06:52;;;;;;;8.73;7.80;;;;;;;20.16;100.00;101652.41;5230261;28;20112;-68
2022/07/21 08:09:24;;;;;;;11.07;8.55;;;;;;;20.18;100.00;101661.84;5231812;28;20120;-70
2022/07/21 08:11:56;;;;;;;9.87;8.87;;;;;;;20.15;100.00;101662.22;5232117;28;20029;-70
2022/07/21 08:14:30;;;;;;;8.87;8.07;;;;;;;20.13;100.00;101653.56;5232588;28;20120;-70
2022/07/21 08:17:02;;;;;;;8.25;7.45;;;;;;;20.12;100.00;101661.72;5231497;28;20056;-71
2022/07/21 08:19:34;;;;;;;8.27;7.30;;;;;;;20.15;100.00;101648.91;5245925;28;20033;-69
2022/07/21 08:22:06;;;;;;;7.35;6.65;;;;;;;20.21;100.00;101658.00;5230585;28;20091;-71
2022/07/21 08:24:37;;;;;;;7.20;6.50;;;;;;;20.12;100.00;101659.88;5230268;28;20033;-69
2022/07/21 08:27:09;;;;;;;9.00;6.67;;;;;;;20.14;100.00;101662.38;5230924;28;20410;-71
2022/07/21 08:29:42;;;;;;;6.63;5.93;;;;;;;20.15;100.00;101670.19;5226593;28;20500;-70
2022/07/21 08:32:14;;;;;;;7.82;6.38;;;;;;;20.08;100.00;101657.75;5228675;28;20056;-70
2022/07/21 08:34:51;;;;;;;8.33;6.53;;;;;;;20.14;100.00;101654.38;5231890;28;20675;-70
2022/07/21 08:37:22;;;;;;;7.25;6.55;;;;;;;20.06;100.00;101654.44;5231889;28;20033;-70
2022/07/21 08:39:54;;;;;;;7.93;7.13;;;;;;;20.10;100.00;101658.41;5231917;28;20402;-68
2022/07/21 08:42:26;;;;;;;7.93;7.17;;;;;;;20.14;100.00;101671.16;5228728;28;20106;-68
2022/07/21 08:44:57;;;;;;;8.07;7.28;;;;;;;20.13;100.00;101666.03;5228578;28;20037;-68
2022/07/21 08:47:29;;;;;;;8.50;7.70;;;;;;;20.17;100.00;101668.16;5229408;28;20059;-68
2022/07/21 08:50:01;;;;;;;8.07;7.27;;;;;;;20.14;100.00;101670.34;5228467;28;20063;-68
2022/07/21 08:52:32;;;;;;;7.97;7.27;;;;;;;20.24;100.00;101663.00;5231193;28;20479;-68
2022/07/21 08:55:04;;;;;;;9.37;7.50;;;;;;;20.22;100.00;101658.84;5231238;28;20033;-68
2022/07/21 08:57:38;;;;;;;9.77;8.17;;;;;;;20.22;100.00;101664.97;5229654;28;20034;-67
2022/07/21 09:00:10;;;;;;;9.80;8.43;;;;;;;20.17;100.00;101667.34;5230618;28;20497;-67
2022/07/21 09:02:42;;;;;;;11.50;8.75;;;;;;;20.18;100.00;101669.81;5230841;28;20048;-68
2022/07/21 09:05:14;;;;;;;9.27;8.23;;;;;;;20.28;100.00;101664.31;5229103;28;20017;-67
2022/07/21 09:08:00;;;;;;;9.67;8.77;;;;;;;20.29;100.00;101665.13;5229697;28;20068;-67
2022/07/21 09:10:32;;;;;;;7.55;6.85;;;;;;;20.13;100.00;101666.88;5226864;28;20017;-68
2022/07/21 09:13:06;;;;;;;8.80;7.43;;;;;;;20.28;100.00;101669.63;5226181;28;20406;-68
2022/07/21 09:15:39;;;;;;;8.35;7.55;;;;;;;20.29;100.00;101673.94;5228715;28;20484;-69
2022/07/21 09:18:15;;;;;;;7.68;6.97;;;;;;;20.40;100.00;101672.72;5228329;28;20037;-68
2022/07/21 09:20:49;;;;;;;8.68;7.88;;;;;;;20.40;100.00;101678.03;5230494;28;20033;-68
2022/07/21 09:23:23;;;;;;;8.18;7.47;;;;;;;20.36;100.00;101680.22;5234426;28;20061;-67
2022/07/21 09:25:59;;;;;;;7.55;6.95;;;;;;;20.32;100.00;101683.41;5223305;28;20025;-69
2022/07/21 09:28:30;;;;;;;11.63;8.15;;;;;;;20.23;100.00;101679.97;5226265;28;20033;-73
2022/07/21 09:31:10;;;;;;;8.50;7.67;;;;;;;20.46;100.00;101682.69;5231296;28;20326;-70
2022/07/21 09:33:45;;;;;;;6.90;6.25;;;;;;;20.30;100.00;101688.88;5234885;28;20192;-68
2022/07/21 09:36:18;;;;;;;6.60;6.00;;;;;;;20.24;100.00;101694.09;5234233;28;20021;-68
2022/07/21 09:38:52;;;;;;;7.03;5.97;;;;;;;20.17;100.00;101691.28;5220786;28;20438;-68
2022/07/21 09:41:25;;;;;;;5.55;5.05;;;;;;;20.17;100.00;101689.47;5226199;28;20286;-67
2022/07/21 09:43:57;;;;;;;5.72;3.95;;;;;;;20.08;100.00;101685.19;5229790;28;20689;-68
2022/07/21 09:46:29;;;;;;;4.80;3.90;;;;;;;20.12;100.00;101698.97;5232971;28;20029;-68
2022/07/21 09:49:02;;;;;;;4.28;3.10;;;;;;;20.04;100.00;101691.00;5231983;28;20398;-68
2022/07/21 09:51:41;;;;;;;4.13;3.47;;;;;;;19.98;100.00;101684.53;5229506;28;20032;-66
2022/07/21 09:54:13;;;;;;;5.20;3.95;;;;;;;19.93;100.00;101702.84;5232246;28;20039;-67
2022/07/21 09:56:47;;;;;;;4.30;3.90;;;;;;;19.86;100.00;101704.53;5234553;28;20021;-67
2022/07/21 09:59:18;;;;;;;5.55;3.97;;;;;;;19.80;100.00;101707.84;5234522;28;20021;-67
2022/07/21 10:01:50;;;;;;;5.73;4.00;;;;;;;19.75;100.00;101705.72;5230761;28;20029;-67
2022/07/21 10:04:24;;;;;;;4.73;4.33;;;;;;;19.71;100.00;101706.22;5232947;28;20021;-69
2022/07/21 10:06:56;;;;;;;5.80;5.28;;;;;;;19.67;100.00;101708.41;5233706;28;20033;-67
2022/07/21 10:09:28;;;;;;;5.72;4.85;;;;;;;19.72;100.00;101705.22;5235367;28;20030;-68
2022/07/21 10:12:01;;;;;;;5.50;5.00;;;;;;;19.70;100.00;101721.34;5233011;28;20044;-67
2022/07/21 10:14:32;;;;;;;;;;;;;;;20.30;100.00;101727.97;5235248;28;20037;-68
2022/07/21 10:17:03;;;;;;;5.93;5.32;;;;;;;19.76;100.00;101723.31;5232867;28;19916;-68
2022/07/21 10:19:44;;;;;;;6.33;5.67;;;;;;;19.88;100.00;101721.97;5235472;28;20040;-68
2022/07/21 10:22:31;;;;;;;6.93;6.18;;;;;;;20.00;100.00;101730.44;5233610;28;20112;-68
2022/07/21 10:25:03;;;;;;;6.78;6.13;;;;;;;20.01;100.00;101725.94;5230147;28;20036;-68
2022/07/21 10:27:34;;;;;;;6.35;5.82;;;;;;;19.95;100.00;101730.09;5233201;28;20084;-68
2022/07/21 10:30:06;;;;;;;6.63;6.03;;;;;;;20.03;100.00;101730.06;5232382;28;20484;-68
2022/07/21 10:32:49;;;;;;;9.23;6.47;;;;;;;20.27;100.00;101739.81;5231881;28;20068;-68
2022/07/21 10:35:29;;;;;;;6.85;6.20;;;;;;;20.23;100.00;101740.31;5234296;28;20033;-68
2022/07/21 10:38:02;;;;;;;7.95;7.15;;;;;;;20.09;100.00;101741.88;5234836;28;20089;-68
2022/07/21 10:40:34;;;;;;;;;;;;;;;20.69;100.00;101741.31;5227999;28;20439;-68
2022/07/21 10:43:25;;;;;;;7.22;6.53;;;;;;;20.42;100.00;101748.75;5231461;28;20055;-67
2022/07/21 10:45:58;;;;;;;7.53;6.38;;;;;;;20.11;100.00;101745.19;5230931;28;20160;-69
2022/07/21 10:48:41;;;;;;;;;;;;;;;20.69;100.00;101737.84;5230301;28;20086;-67
2022/07/21 10:51:15;;;;;;;6.20;5.60;;;;;;;20.03;100.00;101748.69;5232162;28;19913;-67
2022/07/21 10:54:16;;;;;;;6.82;5.80;;;;;;;20.17;100.00;101750.66;5233088;28;20775;-68
2022/07/21 10:56:48;;;;;;;6.30;5.68;;;;;;;19.78;100.00;101752.41;5231259;28;20047;-67
2022/07/21 10:59:19;;;;;;;7.17;5.70;;;;;;;19.81;100.00;101752.06;5232365;28;20034;-68
2022/07/21 11:01:51;;;;;;;9.90;6.30;;;;;;;19.76;100.00;101755.22;5234158;28;20025;-68
2022/07/21 11:04:22;;;;;;;6.20;5.10;;;;;;;19.63;100.00;101749.59;5233358;28;20506;-67
2022/07/21 11:06:54;;;;;;;7.77;5.83;;;;;;;19.68;100.00;101753.41;5232811;28;20394;-67
2022/07/21 11:09:25;;;;;;;7.60;5.77;;;;;;;19.64;100.00;101757.41;5234493;28;20033;-68
2022/07/21 11:12:00;;;;;;;8.00;6.10;;;;;;;19.74;100.00;101754.59;5231127;28;20458;-68
2022/07/21 11:14:44;;;;;;;6.97;6.25;;;;;;;20.11;100.00;101753.97;5229195;28;20099;-67
2022/07/21 11:17:29;;;;;;;8.10;5.97;;;;;;;20.14;100.00;101753.66;5232244;28;20503;-68
2022/07/21 11:20:02;;;;;;;8.32;6.10;;;;;;;19.94;100.00;101757.69;5233113;28;20489;-70
2022/07/21 11:22:33;;;;;;;7.75;5.50;;;;;;;19.88;100.00;101755.69;5232002;28;20471;-69
2022/07/21 11:25:06;;;;;;;7.47;5.77;;;;;;;19.83;100.00;101760.72;5230589;28;20036;-68
2022/07/21 11:27:40;;;;;;;7.07;6.00;;;;;;;19.78;100.00;101771.03;5228949;28;20029;-68
2022/07/21 11:30:12;;;;;;;7.50;6.05;;;;;;;19.69;100.00;101768.34;5229253;28;20110;-68
2022/07/21 11:32:47;;;;;;;7.73;5.40;;;;;;;19.74;100.00;101773.19;5228979;28;20041;-68
2022/07/21 11:35:19;;;;;;;6.88;4.88;;;;;;;19.64;100.00;101773.34;5227596;28;20033;-68